createdAt,value
2022-09-24T00:00:32.755Z,5.50
2022-09-24T00:02:34.942Z,6.22
2022-09-24T00:04:37.278Z,6.80
2022-09-24T00:06:43.213Z,5.20
2022-09-24T00:08:49.610Z,4.68
2022-09-24T00:10:51.934Z,4.85
2022-09-24T00:12:54.032Z,4.43
2022-09-24T00:14:56.075Z,4.57
2022-09-24T00:16:59.328Z,5.57
2022-09-24T00:19:03.031Z,5.22
2022-09-24T00:21:14.828Z,4.40
2022-09-24T00:23:17.045Z,4.18
2022-09-24T00:25:37.747Z,4.40
2022-09-24T00:27:39.780Z,4.72
2022-09-24T00:29:42.315Z,4.72
2022-09-24T00:31:44.554Z,4.50
2022-09-24T00:33:46.711Z,4.22
2022-09-24T00:35:48.793Z,4.15
2022-09-24T00:38:02.329Z,3.83
2022-09-24T00:40:06.272Z,4.22
2022-09-24T00:42:10.389Z,4.03
2022-09-24T00:44:41.139Z,4.35
2022-09-24T00:47:02.240Z,3.78
2022-09-24T00:49:17.112Z,3.92
2022-09-24T00:51:25.659Z,4.90
2022-09-24T00:53:33.289Z,4.28
2022-09-24T00:55:37.160Z,4.43
2022-09-24T00:57:40.555Z,3.83
2022-09-24T00:59:44.156Z,3.70
2022-09-24T01:01:47.575Z,4.05
2022-09-24T01:03:51.692Z,4.35
2022-09-24T01:05:55.546Z,4.85
2022-09-24T01:07:58.385Z,4.10
2022-09-24T01:10:01.831Z,4.13
2022-09-24T01:12:48.683Z,3.80
2022-09-24T01:15:24.814Z,3.20
2022-09-24T01:17:48.585Z,4.63
2022-09-24T01:19:59.775Z,4.40
2022-09-24T01:22:08.343Z,3.87
2022-09-24T01:24:36.157Z,3.83
2022-09-24T01:27:06.084Z,3.55
2022-09-24T01:29:26.991Z,3.15
2022-09-24T01:31:42.010Z,3.25
2022-09-24T01:33:49.110Z,3.97
2022-09-24T01:35:55.552Z,4.05
2022-09-24T01:38:05.016Z,4.10
2022-09-24T01:40:10.944Z,4.23
2022-09-24T01:42:14.691Z,4.87
2022-09-24T01:44:18.614Z,5.28
2022-09-24T01:46:22.961Z,5.30
2022-09-24T01:48:30.603Z,4.70
2022-09-24T01:50:47.332Z,3.57
2022-09-24T01:52:56.181Z,3.90
2022-09-24T01:55:03.957Z,3.50
2022-09-24T01:57:13.655Z,4.03
2022-09-24T01:59:42.917Z,4.33
2022-09-24T02:02:16.405Z,4.50
2022-09-24T02:04:21.682Z,4.43
2022-09-24T02:06:31.827Z,4.15
2022-09-24T02:08:42.663Z,4.28
2022-09-24T02:10:55.827Z,3.95
2022-09-24T02:13:04.162Z,5.05
2022-09-24T02:15:13.340Z,3.83
2022-09-24T02:17:16.859Z,3.55
2022-09-24T02:19:24.387Z,3.70
2022-09-24T02:21:27.774Z,3.35
2022-09-24T02:23:32.545Z,3.17
2022-09-24T02:26:03.563Z,3.60
2022-09-24T02:28:05.584Z,3.42
2022-09-24T02:30:11.106Z,3.05
2022-09-24T02:32:18.376Z,3.83
2022-09-24T02:34:42.575Z,3.97
2022-09-24T02:36:44.860Z,4.00
2022-09-24T02:38:47.013Z,3.30
2022-09-24T02:40:49.987Z,3.72
2022-09-24T02:42:52.429Z,3.43
2022-09-24T02:44:57.575Z,4.00
2022-09-24T02:47:00.064Z,4.17
2022-09-24T02:49:02.551Z,3.90
2022-09-24T02:51:05.861Z,3.83
2022-09-24T02:53:08.105Z,3.67
2022-09-24T02:55:10.284Z,3.83
2022-09-24T02:57:12.695Z,2.70
2022-09-24T02:59:14.937Z,3.30
2022-09-24T03:01:17.060Z,3.23
2022-09-24T03:03:19.419Z,4.30
2022-09-24T03:05:22.304Z,3.10
2022-09-24T03:07:24.245Z,3.30
2022-09-24T03:09:26.289Z,3.97
2022-09-24T03:11:29.302Z,3.63
2022-09-24T03:13:31.671Z,3.37
2022-09-24T03:15:33.955Z,3.17
2022-09-24T03:17:36.410Z,3.47
2022-09-24T03:19:42.260Z,2.70
2022-09-24T03:21:49.329Z,3.43
2022-09-24T03:23:51.805Z,3.00
2022-09-24T03:25:58.836Z,3.67
2022-09-24T03:28:01.141Z,3.20
2022-09-24T03:30:22.613Z,3.40
2022-09-24T03:32:24.708Z,3.20
2022-09-24T03:34:26.858Z,3.40
2022-09-24T03:36:28.969Z,3.20
2022-09-24T03:38:31.116Z,3.03
2022-09-24T03:40:33.397Z,3.10
2022-09-24T03:42:35.776Z,3.13
2022-09-24T03:44:37.774Z,3.73
2022-09-24T03:46:39.878Z,3.00
2022-09-24T03:48:42.028Z,3.10
2022-09-24T03:50:44.444Z,3.10
2022-09-24T03:52:46.488Z,3.00
2022-09-24T03:54:48.881Z,2.73
2022-09-24T03:56:50.901Z,3.50
2022-09-24T03:58:53.561Z,3.10
2022-09-24T04:00:59.522Z,3.70
2022-09-24T04:03:01.481Z,3.50
2022-09-24T04:05:03.942Z,3.60
2022-09-24T04:07:06.199Z,2.90
2022-09-24T04:09:08.248Z,4.20
2022-09-24T04:11:10.256Z,3.80
2022-09-24T04:13:13.029Z,4.80
2022-09-24T04:15:18.420Z,4.63
2022-09-24T04:17:20.321Z,5.43
2022-09-24T04:19:22.655Z,4.57
2022-09-24T04:21:24.733Z,6.87
2022-09-24T04:23:29.424Z,8.93
2022-09-24T04:25:32.700Z,15.77
2022-09-24T04:27:36.802Z,13.97
2022-09-24T04:29:38.848Z,9.13
2022-09-24T04:31:41.103Z,6.23
2022-09-24T04:33:43.698Z,4.50
2022-09-24T04:35:46.017Z,4.40
2022-09-24T04:37:48.377Z,5.40
2022-09-24T04:39:50.423Z,6.60
2022-09-24T04:41:53.319Z,6.07
2022-09-24T04:43:57.656Z,6.57
2022-09-24T04:46:00.530Z,5.77
2022-09-24T04:48:02.995Z,6.77
2022-09-24T04:50:05.919Z,6.90
2022-09-24T04:52:09.020Z,6.67
2022-09-24T04:54:11.424Z,7.90
2022-09-24T04:56:14.618Z,6.37
2022-09-24T04:58:17.148Z,6.67
2022-09-24T05:00:21.488Z,10.30
2022-09-24T05:02:24.477Z,11.57
2022-09-24T05:04:26.693Z,13.13
2022-09-24T05:06:29.008Z,13.80
2022-09-24T05:08:31.189Z,13.10
2022-09-24T05:10:33.628Z,11.47
2022-09-24T05:12:37.949Z,10.50
2022-09-24T05:14:40.193Z,10.70
2022-09-24T05:16:42.428Z,13.00
2022-09-24T05:18:47.444Z,13.33
2022-09-24T05:20:49.839Z,10.53
2022-09-24T05:22:52.050Z,8.70
2022-09-24T05:24:54.587Z,9.67
2022-09-24T05:27:11.653Z,7.23
2022-09-24T05:29:14.291Z,7.70
2022-09-24T05:31:17.570Z,6.83
2022-09-24T05:33:19.531Z,8.63
2022-09-24T05:35:23.718Z,7.90
2022-09-24T05:37:25.813Z,11.57
2022-09-24T05:39:33.468Z,13.77
2022-09-24T05:41:36.050Z,10.80
2022-09-24T05:43:38.842Z,8.30
2022-09-24T05:45:43.771Z,29.47
2022-09-24T05:47:46.669Z,21.93
2022-09-24T05:49:49.341Z,13.80
2022-09-24T05:51:51.879Z,10.63
2022-09-24T05:53:54.558Z,8.97
2022-09-24T05:55:59.472Z,10.17
2022-09-24T05:58:10.795Z,18.87
2022-09-24T06:00:13.767Z,11.30
2022-09-24T06:02:16.459Z,8.13
2022-09-24T06:04:21.497Z,6.93
2022-09-24T06:06:25.199Z,6.07
2022-09-24T06:08:28.840Z,5.78
2022-09-24T06:10:31.054Z,5.28
2022-09-24T06:12:36.935Z,9.07
2022-09-24T06:14:39.448Z,7.90
2022-09-24T06:16:41.984Z,9.35
2022-09-24T06:18:45.560Z,7.45
2022-09-24T06:20:48.067Z,6.63
2022-09-24T06:22:50.785Z,6.10
2022-09-24T06:24:53.263Z,6.28
2022-09-24T06:26:55.451Z,6.47
2022-09-24T06:30:01.606Z,5.45
2022-09-24T06:32:04.381Z,5.97
2022-09-24T06:34:06.677Z,6.68
2022-09-24T06:36:09.160Z,7.25
2022-09-24T06:38:13.938Z,5.40
2022-09-24T06:40:16.839Z,5.60
2022-09-24T06:42:20.550Z,7.47
2022-09-24T06:44:23.002Z,8.00
2022-09-24T06:46:29.338Z,6.13
2022-09-24T06:48:34.353Z,6.75
2022-09-24T06:50:41.610Z,6.10
2022-09-24T06:52:44.092Z,5.20
2022-09-24T06:54:47.708Z,5.00
2022-09-24T06:56:51.578Z,5.18
2022-09-24T06:58:54.471Z,4.35
2022-09-24T07:00:59.442Z,4.53
2022-09-24T07:03:04.578Z,4.55
2022-09-24T07:05:09.987Z,6.68
2022-09-24T07:07:30.385Z,5.00
2022-09-24T07:09:33.050Z,4.78
2022-09-24T07:11:36.800Z,4.20
2022-09-24T07:13:38.832Z,3.80
2022-09-24T07:15:42.306Z,3.75
2022-09-24T07:17:45.035Z,3.60
2022-09-24T07:19:47.362Z,4.40
2022-09-24T07:21:49.480Z,3.40
2022-09-24T07:23:56.379Z,4.13
2022-09-24T07:26:03.118Z,4.10
2022-09-24T07:28:11.058Z,3.92
2022-09-24T07:30:16.113Z,4.28
2022-09-24T07:32:18.506Z,4.50
2022-09-24T07:34:20.986Z,4.65
2022-09-24T07:36:25.299Z,5.97
2022-09-24T07:38:27.618Z,4.15
2022-09-24T07:40:31.398Z,4.18
2022-09-24T07:42:33.835Z,3.25
2022-09-24T07:44:36.720Z,3.65
2022-09-24T07:46:39.101Z,3.05
2022-09-24T07:48:41.408Z,3.60
2022-09-24T07:50:43.627Z,2.80
2022-09-24T07:52:50.788Z,3.20
2022-09-24T07:54:54.614Z,2.97
2022-09-24T07:56:57.288Z,3.58
2022-09-24T07:58:59.559Z,3.28
2022-09-24T08:01:02.280Z,3.42
2022-09-24T08:03:05.828Z,3.05
2022-09-24T08:05:08.495Z,2.50
2022-09-24T08:07:12.023Z,3.10
2022-09-24T08:09:17.179Z,2.95
2022-09-24T08:11:20.140Z,3.17
2022-09-24T08:13:26.838Z,2.90
2022-09-24T08:15:33.429Z,2.75
2022-09-24T08:17:35.987Z,2.30
2022-09-24T08:19:40.102Z,1.60
2022-09-24T08:21:42.397Z,2.20
2022-09-24T08:23:45.123Z,2.53
2022-09-24T08:25:48.147Z,2.10
2022-09-24T08:27:50.380Z,2.03
2022-09-24T08:29:52.975Z,2.15
2022-09-24T08:31:55.800Z,1.90
2022-09-24T08:33:58.109Z,2.20
2022-09-24T08:36:01.745Z,2.10
2022-09-24T08:38:04.269Z,1.90
2022-09-24T08:40:07.329Z,2.35
2022-09-24T08:42:34.274Z,2.42
2022-09-24T08:45:04.178Z,2.28
2022-09-24T08:47:25.448Z,2.50
2022-09-24T08:49:46.541Z,2.85
2022-09-24T08:52:29.857Z,2.60
2022-09-24T08:54:35.788Z,2.55
2022-09-24T08:56:44.080Z,2.80
2022-09-24T08:59:21.618Z,2.30
2022-09-24T09:01:23.750Z,2.58
2022-09-24T09:03:40.986Z,2.78
2022-09-24T09:06:19.770Z,2.75
2022-09-24T09:09:06.442Z,2.60
2022-09-24T09:11:13.818Z,2.97
2022-09-24T09:13:25.721Z,2.70
2022-09-24T09:15:32.618Z,2.88
2022-09-24T09:17:55.325Z,3.30
2022-09-24T09:20:01.953Z,2.92
2022-09-24T09:22:15.280Z,3.05
2022-09-24T09:24:26.745Z,3.33
2022-09-24T09:26:32.022Z,3.05
2022-09-24T09:28:34.393Z,2.88
2022-09-24T09:30:49.054Z,3.83
2022-09-24T09:33:20.306Z,3.33
2022-09-24T09:36:03.869Z,3.15
2022-09-24T09:38:43.204Z,4.68
2022-09-24T09:40:59.428Z,5.20
2022-09-24T09:43:09.598Z,4.93
2022-09-24T09:45:27.968Z,5.25
2022-09-24T09:47:54.238Z,4.03
2022-09-24T09:50:04.243Z,3.42
2022-09-24T09:52:15.869Z,3.80
2022-09-24T09:54:17.888Z,3.33
2022-09-24T09:56:25.411Z,3.70
2022-09-24T09:58:31.307Z,4.53
2022-09-24T10:00:36.010Z,4.13
2022-09-24T10:02:43.816Z,4.38
2022-09-24T10:04:46.760Z,4.45
2022-09-24T10:06:48.962Z,3.45
2022-09-24T10:08:51.482Z,3.42
2022-09-24T10:11:01.361Z,2.88
2022-09-24T10:13:09.339Z,16.27
2022-09-24T10:15:24.517Z,14.07
2022-09-24T10:17:38.659Z,8.80
2022-09-24T10:20:15.928Z,5.72
2022-09-24T10:22:26.210Z,4.72
2022-09-24T10:24:30.088Z,3.58
2022-09-24T10:26:43.864Z,2.80
2022-09-24T10:29:08.808Z,2.60
2022-09-24T10:31:21.606Z,2.58
2022-09-24T10:33:36.054Z,2.28
2022-09-24T10:35:38.853Z,2.30
2022-09-24T10:38:00.278Z,1.88
2022-09-24T10:40:12.904Z,2.30
2022-09-24T10:42:26.212Z,2.25
2022-09-24T10:44:37.113Z,2.42
2022-09-24T10:46:48.445Z,2.22
2022-09-24T10:48:55.197Z,2.78
2022-09-24T10:51:17.718Z,1.77
2022-09-24T10:53:47.415Z,1.80
2022-09-24T10:55:55.799Z,2.17
2022-09-24T10:58:14.318Z,1.95
2022-09-24T11:00:30.155Z,2.20
2022-09-24T11:03:00.111Z,2.28
2022-09-24T11:05:12.329Z,2.33
2022-09-24T11:07:36.364Z,2.33
2022-09-24T11:10:13.334Z,1.85
2022-09-24T11:12:52.935Z,2.38
2022-09-24T11:15:22.237Z,2.25
2022-09-24T11:17:33.806Z,2.10
2022-09-24T11:20:00.615Z,2.30
2022-09-24T11:22:15.974Z,2.05
2022-09-24T11:24:46.065Z,2.08
2022-09-24T11:27:10.959Z,1.75
2022-09-24T11:29:37.035Z,1.75
2022-09-24T11:31:42.817Z,1.77
2022-09-24T11:34:22.033Z,1.58
2022-09-24T11:36:43.031Z,1.85
2022-09-24T11:39:12.871Z,1.40
2022-09-24T11:41:33.589Z,1.40
2022-09-24T11:43:35.864Z,1.55
2022-09-24T11:45:49.207Z,1.77
2022-09-24T11:48:00.116Z,1.88
2022-09-24T11:50:24.428Z,1.67
2022-09-24T11:52:48.212Z,1.40
2022-09-24T11:54:58.685Z,2.25
2022-09-24T11:57:13.353Z,1.77
2022-09-24T11:59:35.259Z,1.52
2022-09-24T12:01:41.238Z,2.00
2022-09-24T12:03:57.363Z,1.90
2022-09-24T12:06:09.765Z,2.05
2022-09-24T12:08:38.445Z,1.52
2022-09-24T12:10:48.942Z,1.30
2022-09-24T12:12:57.600Z,1.90
2022-09-24T12:15:08.744Z,1.20
2022-09-24T12:17:18.884Z,1.35
2022-09-24T12:19:23.571Z,1.95
2022-09-24T12:21:35.202Z,1.70
2022-09-24T12:23:45.160Z,2.00
2022-09-24T12:25:53.516Z,2.00
2022-09-24T12:27:56.841Z,1.80
2022-09-24T12:30:32.220Z,2.00
2022-09-24T12:32:56.378Z,1.80
2022-09-24T12:35:07.761Z,2.00
2022-09-24T12:37:14.465Z,1.85
2022-09-24T12:39:19.222Z,1.80
2022-09-24T12:41:27.511Z,1.40
2022-09-24T12:43:38.202Z,1.52
2022-09-24T12:45:40.555Z,1.70
2022-09-24T12:48:01.604Z,1.60
2022-09-24T12:50:06.718Z,1.40
2022-09-24T12:52:25.378Z,1.40
2022-09-24T12:54:35.379Z,2.10
2022-09-24T12:56:37.700Z,1.52
2022-09-24T12:58:42.057Z,1.80
2022-09-24T13:00:47.284Z,1.70
2022-09-24T13:02:49.721Z,1.95
2022-09-24T13:05:28.228Z,1.60
2022-09-24T13:07:39.854Z,1.80
2022-09-24T13:09:42.898Z,2.00
2022-09-24T13:11:45.584Z,1.70
2022-09-24T13:13:59.756Z,1.75
2022-09-24T13:16:08.020Z,1.75
2022-09-24T13:18:10.345Z,1.70
2022-09-24T13:20:28.881Z,2.08
2022-09-24T13:22:37.424Z,1.88
2022-09-24T13:24:50.952Z,1.77
2022-09-24T13:26:53.216Z,1.75
2022-09-24T13:29:04.227Z,1.63
2022-09-24T13:31:21.374Z,1.58
2022-09-24T13:33:45.448Z,1.90
2022-09-24T13:36:11.014Z,1.73
2022-09-24T13:38:27.478Z,1.65
2022-09-24T13:40:35.023Z,1.70
2022-09-24T13:43:00.849Z,1.83
2022-09-24T13:45:09.636Z,2.30
2022-09-24T13:47:37.637Z,2.20
2022-09-24T13:49:47.687Z,1.63
2022-09-24T13:52:31.128Z,1.70
2022-09-24T13:54:39.896Z,1.80
2022-09-24T13:56:44.099Z,2.03
2022-09-24T13:58:51.997Z,2.00
2022-09-24T14:00:55.224Z,2.00
2022-09-24T14:03:03.278Z,1.90
2022-09-24T14:05:17.611Z,1.67
2022-09-24T14:07:21.686Z,1.60
2022-09-24T14:09:23.637Z,1.70
2022-09-24T14:11:26.423Z,2.00
2022-09-24T14:13:28.479Z,1.90
2022-09-24T14:15:30.553Z,1.92
2022-09-24T14:17:32.752Z,1.65
2022-09-24T14:19:36.228Z,2.00
2022-09-24T14:21:58.832Z,2.22
2022-09-24T14:24:09.903Z,1.80
2022-09-24T14:26:36.647Z,2.20
2022-09-24T14:28:39.193Z,2.15
2022-09-24T14:31:00.231Z,2.30
2022-09-24T14:33:12.150Z,2.47
2022-09-24T14:35:29.858Z,2.70
2022-09-24T14:37:36.467Z,2.70
2022-09-24T14:39:43.677Z,2.58
2022-09-24T14:41:45.760Z,2.33
2022-09-24T14:43:53.662Z,2.42
2022-09-24T14:46:07.064Z,2.15
2022-09-24T14:48:30.409Z,2.03
2022-09-24T14:50:41.022Z,1.92
2022-09-24T14:52:56.818Z,1.95
2022-09-24T14:55:20.703Z,2.50
2022-09-24T14:57:26.027Z,2.55
2022-09-24T14:59:30.840Z,2.28
2022-09-24T15:01:33.978Z,2.95
2022-09-24T15:03:53.604Z,3.97
2022-09-24T15:06:12.643Z,2.88
2022-09-24T15:08:24.055Z,3.30
2022-09-24T15:10:26.093Z,3.88
2022-09-24T15:12:36.863Z,3.75
2022-09-24T15:14:39.208Z,4.07
2022-09-24T15:16:42.236Z,4.28
2022-09-24T15:18:44.606Z,4.43
2022-09-24T15:20:46.654Z,4.30
2022-09-24T15:22:49.097Z,4.15
2022-09-24T15:24:54.363Z,4.43
2022-09-24T15:27:01.077Z,4.50
2022-09-24T15:29:04.207Z,4.05
2022-09-24T15:31:06.361Z,4.95
2022-09-24T15:33:14.686Z,5.97
2022-09-24T15:35:17.255Z,5.13
2022-09-24T15:37:21.900Z,5.40
2022-09-24T15:39:25.950Z,5.65
2022-09-24T15:41:28.363Z,5.35
2022-09-24T15:43:30.356Z,5.60
2022-09-24T15:45:32.460Z,5.43
2022-09-24T15:47:34.520Z,5.90
2022-09-24T15:49:36.554Z,6.20
2022-09-24T15:51:40.364Z,6.07
2022-09-24T15:53:42.547Z,7.05
2022-09-24T15:55:48.662Z,5.93
2022-09-24T15:57:50.800Z,6.68
2022-09-24T15:59:53.694Z,6.22
2022-09-24T16:02:00.156Z,5.72
2022-09-24T16:04:02.545Z,6.80
2022-09-24T16:06:04.731Z,6.40
2022-09-24T16:08:06.797Z,5.47
2022-09-24T16:10:10.648Z,5.32
2022-09-24T16:12:16.479Z,6.05
2022-09-24T16:14:19.042Z,5.30
2022-09-24T16:16:22.775Z,4.88
2022-09-24T16:18:26.220Z,4.82
2022-09-24T16:20:30.903Z,4.63
2022-09-24T16:22:33.083Z,4.70
2022-09-24T16:24:35.366Z,4.60
2022-09-24T16:26:38.769Z,5.28
2022-09-24T16:28:40.731Z,5.20
2022-09-24T16:30:43.265Z,4.47
2022-09-24T16:32:48.111Z,5.13
2022-09-24T16:34:50.232Z,5.88
2022-09-24T16:36:55.501Z,7.90
2022-09-24T16:38:58.641Z,6.95
2022-09-24T16:41:01.052Z,7.60
2022-09-24T16:43:04.030Z,9.02
2022-09-24T16:45:07.190Z,8.57
2022-09-24T16:47:09.639Z,8.75
2022-09-24T16:49:12.684Z,8.45
2022-09-24T16:51:14.952Z,8.88
2022-09-24T16:53:17.150Z,9.27
2022-09-24T16:55:19.402Z,9.35
2022-09-24T16:57:21.470Z,9.57
2022-09-24T16:59:23.509Z,10.68
2022-09-24T17:01:25.815Z,15.38
2022-09-24T17:03:28.026Z,19.30
2022-09-24T17:05:30.120Z,17.40
2022-09-24T17:07:32.799Z,18.60
2022-09-24T17:09:53.533Z,19.27
2022-09-24T17:11:57.187Z,21.50
2022-09-24T17:14:00.668Z,21.65
2022-09-24T17:16:02.960Z,23.65
2022-09-24T17:18:05.221Z,21.13
2022-09-24T17:20:08.007Z,21.08
2022-09-24T17:22:10.393Z,20.52
2022-09-24T17:24:13.816Z,20.13
2022-09-24T17:26:23.029Z,19.90
2022-09-24T17:28:25.511Z,20.70
2022-09-24T17:30:27.519Z,21.30
2022-09-24T17:32:29.738Z,20.92
2022-09-24T17:34:31.923Z,19.45
2022-09-24T17:36:35.335Z,18.20
2022-09-24T17:38:38.226Z,17.95
2022-09-24T17:40:40.421Z,17.95
2022-09-24T17:42:45.919Z,20.38
2022-09-24T17:44:47.912Z,19.27
2022-09-24T17:46:50.197Z,19.15
2022-09-24T17:48:55.155Z,19.13
2022-09-24T17:50:59.507Z,20.30
2022-09-24T17:53:04.023Z,20.23
2022-09-24T17:55:08.554Z,19.40
2022-09-24T17:57:10.709Z,17.75
2022-09-24T17:59:16.952Z,16.67
2022-09-24T18:01:22.223Z,16.90
2022-09-24T18:03:24.631Z,16.80
2022-09-24T18:05:26.835Z,16.02
2022-09-24T18:07:30.032Z,14.25
2022-09-24T18:09:32.146Z,14.98
2022-09-24T18:11:40.077Z,17.52
2022-09-24T18:13:42.330Z,24.27
2022-09-24T18:15:44.355Z,22.88
2022-09-24T18:17:46.318Z,28.00
2022-09-24T18:19:48.339Z,29.30
2022-09-24T18:21:50.487Z,27.63
2022-09-24T18:23:56.724Z,28.40
2022-09-24T18:26:19.711Z,27.98
2022-09-24T18:28:22.788Z,27.30
2022-09-24T18:30:25.031Z,24.42
2022-09-24T18:32:33.198Z,22.95
2022-09-24T18:34:35.555Z,23.13
2022-09-24T18:36:39.802Z,23.02
2022-09-24T18:38:44.415Z,22.40
2022-09-24T18:40:47.553Z,21.42
2022-09-24T18:42:50.562Z,21.33
2022-09-24T18:44:55.722Z,19.42
2022-09-24T18:46:57.840Z,19.35
2022-09-24T18:49:01.124Z,17.55
2022-09-24T18:51:05.317Z,16.27
2022-09-24T18:53:07.320Z,15.65
2022-09-24T18:55:09.993Z,15.20
2022-09-24T18:57:14.231Z,14.73
2022-09-24T18:59:19.643Z,15.32
2022-09-24T19:01:21.974Z,16.15
2022-09-24T19:03:28.230Z,15.13
2022-09-24T19:05:30.366Z,16.38
2022-09-24T19:07:32.778Z,15.25
2022-09-24T19:09:37.644Z,15.68
2022-09-24T19:11:42.125Z,16.27
2022-09-24T19:13:49.121Z,15.93
2022-09-24T19:15:51.507Z,18.55
2022-09-24T19:17:54.212Z,19.67
2022-09-24T19:19:56.664Z,18.08
2022-09-24T19:21:59.748Z,16.73
2022-09-24T19:24:01.932Z,15.90
2022-09-24T19:26:05.079Z,16.40
2022-09-24T19:28:10.635Z,15.75
2022-09-24T19:30:12.816Z,16.17
2022-09-24T19:32:15.163Z,15.95
2022-09-24T19:34:17.356Z,14.40
2022-09-24T19:36:20.159Z,13.43
2022-09-24T19:38:24.085Z,12.85
2022-09-24T19:40:26.126Z,11.65
2022-09-24T19:42:28.058Z,11.13
2022-09-24T19:44:30.907Z,9.57
2022-09-24T19:46:33.560Z,9.98
2022-09-24T19:48:38.670Z,10.57
2022-09-24T19:50:40.859Z,9.98
2022-09-24T19:52:44.254Z,11.20
2022-09-24T19:54:46.482Z,11.25
2022-09-24T19:56:51.588Z,12.70
2022-09-24T19:58:56.024Z,12.98
2022-09-24T20:01:02.811Z,13.82
2022-09-24T20:03:05.408Z,12.02
2022-09-24T20:05:08.067Z,10.50
2022-09-24T20:07:10.614Z,11.07
2022-09-24T20:09:13.163Z,10.98
2022-09-24T20:11:19.484Z,9.75
2022-09-24T20:13:22.570Z,9.27
2022-09-24T20:15:24.600Z,8.70
2022-09-24T20:17:26.670Z,8.98
2022-09-24T20:19:31.728Z,9.50
2022-09-24T20:21:35.248Z,8.45
2022-09-24T20:23:37.613Z,9.23
2022-09-24T20:25:58.105Z,8.95
2022-09-24T20:28:00.664Z,9.10
2022-09-24T20:30:02.868Z,8.45
2022-09-24T20:32:05.276Z,8.45
2022-09-24T20:34:07.229Z,7.95
2022-09-24T20:36:17.974Z,6.13
2022-09-24T20:38:22.215Z,6.78
2022-09-24T20:40:24.023Z,6.70
2022-09-24T20:42:25.804Z,6.30
2022-09-24T20:44:28.112Z,6.10
2022-09-24T20:46:30.435Z,6.95
2022-09-24T20:48:32.273Z,6.13
2022-09-24T20:50:34.915Z,6.22
2022-09-24T20:52:36.864Z,6.45
2022-09-24T20:54:38.580Z,6.63
2022-09-24T20:56:40.783Z,6.00
2022-09-24T20:58:42.819Z,6.15
2022-09-24T21:00:54.462Z,5.97
2022-09-24T21:02:56.351Z,7.35
2022-09-24T21:04:58.401Z,7.00
2022-09-24T21:07:01.742Z,6.78
2022-09-24T21:09:04.015Z,8.60
2022-09-24T21:11:11.339Z,7.13
2022-09-24T21:13:13.211Z,7.72
2022-09-24T21:15:15.478Z,8.35
2022-09-24T21:17:18.652Z,8.52
2022-09-24T21:19:21.062Z,8.20
2022-09-24T21:21:29.027Z,8.13
2022-09-24T21:23:32.889Z,6.53
2022-09-24T21:25:53.509Z,6.20
2022-09-24T21:27:56.773Z,5.55
2022-09-24T21:29:58.426Z,5.85
2022-09-24T21:32:00.388Z,5.72
2022-09-24T21:34:02.443Z,6.70
2022-09-24T21:36:07.345Z,5.63
2022-09-24T21:38:09.409Z,5.30
2022-09-24T21:40:11.566Z,5.05
2022-09-24T21:42:14.209Z,5.30
2022-09-24T21:44:17.739Z,5.35
2022-09-24T21:46:19.795Z,4.80
2022-09-24T21:48:23.572Z,4.53
2022-09-24T21:50:25.290Z,4.80
2022-09-24T21:52:31.211Z,4.60
2022-09-24T21:54:36.578Z,4.55
2022-09-24T21:56:38.341Z,4.13
2022-09-24T21:58:40.033Z,4.25
2022-09-24T22:00:42.976Z,3.67
2022-09-24T22:02:45.235Z,4.47
2022-09-24T22:04:47.451Z,4.18
2022-09-24T22:06:51.321Z,5.45
2022-09-24T22:08:54.316Z,4.40
2022-09-24T22:11:05.328Z,3.80
2022-09-24T22:13:08.683Z,3.85
2022-09-24T22:15:11.093Z,3.97
2022-09-24T22:17:13.951Z,3.90
2022-09-24T22:19:15.807Z,4.10
2022-09-24T22:21:17.600Z,3.92
2022-09-24T22:23:20.963Z,4.05
2022-09-24T22:25:22.943Z,4.35
2022-09-24T22:27:24.618Z,4.20
2022-09-24T22:29:26.339Z,4.03
2022-09-24T22:31:28.170Z,4.20
2022-09-24T22:33:49.640Z,4.68
2022-09-24T22:35:55.735Z,3.92
2022-09-24T22:37:57.537Z,3.45
2022-09-24T22:39:59.396Z,3.60
2022-09-24T22:42:01.684Z,4.10
2022-09-24T22:44:03.610Z,4.88
2022-09-24T22:46:11.692Z,4.90
2022-09-24T22:48:13.611Z,5.40
2022-09-24T22:50:15.416Z,5.00
2022-09-24T22:52:17.167Z,4.90
2022-09-24T22:54:18.923Z,4.20
2022-09-24T22:56:30.392Z,3.67
2022-09-24T22:58:33.841Z,4.15
2022-09-24T23:00:36.398Z,3.90
2022-09-24T23:02:38.135Z,4.43
2022-09-24T23:04:40.658Z,4.35
2022-09-24T23:06:43.746Z,4.38
2022-09-24T23:08:45.578Z,4.45
2022-09-24T23:10:47.514Z,5.35
2022-09-24T23:12:49.438Z,4.55
2022-09-24T23:14:52.614Z,4.65
2022-09-24T23:16:58.783Z,4.88
2022-09-24T23:19:03.620Z,4.90
2022-09-24T23:21:07.490Z,5.70
2022-09-24T23:23:09.297Z,5.45
2022-09-24T23:25:11.001Z,5.63
2022-09-24T23:27:16.933Z,4.70
2022-09-24T23:29:18.770Z,4.30
2022-09-24T23:31:25.353Z,5.10
2022-09-24T23:33:30.013Z,4.13
2022-09-24T23:35:32.343Z,4.72
2022-09-24T23:37:34.216Z,4.38
2022-09-24T23:39:35.976Z,3.95
2022-09-24T23:41:37.820Z,3.97
2022-09-24T23:43:39.758Z,3.30
2022-09-24T23:45:42.024Z,2.80
2022-09-24T23:47:43.806Z,3.63
2022-09-24T23:49:45.541Z,3.95
2022-09-24T23:51:47.247Z,3.72
2022-09-24T23:53:49.050Z,3.90
2022-09-24T23:55:52.162Z,3.58
2022-09-24T23:57:53.977Z,3.70
2022-09-24T23:59:55.875Z,3.70
